RCT weather

Nartron Field
Reed City, Michigan, United States

Public forecast

Using degrees Fahrenheit for public forecast. Weather courtesy of forecast.io.

Closest aviation weather report (METAR) to Nartron Field

Closest report is Roben Hood Airport, 10.7 nm (19.8 km) S. Retrieved 2019/10/22 15:36 UTC (0 seconds ago):

KRQB 221536Z AUTO 21009G20KT 10SM SCT011 BKN016 OVC033 09/07 A2945 RMK AO2 T00850069

Closest aviation forecast (TAF) to Nartron Field

Closest forecast is Manistee Co Blacker Airport, 38.6 nm (71.5 km) NW. Retrieved 2019/10/22 12:21 UTC (3 hours ago):

TAF KMBL 221120Z 2212/2312 19015G24KT 6SM -SHRA OVC035 FM221500 20018G31KT 6SM -SHRA OVC016 FM230000 24019G33KT 6SM -SHRA OVC020 FM230600 25018G31KT P6SM OVC019